createdAt,value
2022-09-12T00:00:01.699Z,11.99
2022-09-12T00:01:01.771Z,11.95
2022-09-12T00:02:06.030Z,11.96
2022-09-12T00:03:01.667Z,11.95
2022-09-12T00:04:01.648Z,11.99
2022-09-12T00:05:01.674Z,12.04
2022-09-12T00:06:01.670Z,12.05
2022-09-12T00:07:01.638Z,12.07
2022-09-12T00:08:01.632Z,12.09
2022-09-12T00:09:01.599Z,12.04
2022-09-12T00:10:02.078Z,11.99
2022-09-12T00:11:01.582Z,11.99
2022-09-12T00:12:01.553Z,11.96
2022-09-12T00:13:01.552Z,11.96
2022-09-12T00:14:01.582Z,11.91
2022-09-12T00:15:01.566Z,11.95
2022-09-12T00:16:01.506Z,11.96
2022-09-12T00:17:01.522Z,11.98
2022-09-12T00:18:01.521Z,11.99
2022-09-12T00:19:01.529Z,11.98
2022-09-12T00:20:01.471Z,11.96
2022-09-12T00:21:01.453Z,11.96
2022-09-12T00:22:01.478Z,11.94
2022-09-12T00:23:01.448Z,11.91
2022-09-12T00:24:01.457Z,11.91
2022-09-12T00:25:01.456Z,11.91
2022-09-12T00:26:01.408Z,11.88
2022-09-12T00:27:01.420Z,11.86
2022-09-12T00:28:01.406Z,11.85
2022-09-12T00:29:01.372Z,11.83
2022-09-12T00:30:01.458Z,11.85
2022-09-12T00:31:01.418Z,11.80
2022-09-12T00:32:01.410Z,11.80
2022-09-12T00:33:01.476Z,11.76
2022-09-12T00:34:01.351Z,11.79
2022-09-12T00:35:01.322Z,11.79
2022-09-12T00:36:01.299Z,11.80
2022-09-12T00:37:01.350Z,11.80
2022-09-12T00:38:01.341Z,11.79
2022-09-12T00:39:01.300Z,11.79
2022-09-12T00:40:01.345Z,11.76
2022-09-12T00:41:01.299Z,11.73
2022-09-12T00:42:01.336Z,11.70
2022-09-12T00:43:01.281Z,11.70
2022-09-12T00:44:01.207Z,11.65
2022-09-12T00:45:01.241Z,11.64
2022-09-12T00:46:01.283Z,11.64
2022-09-12T00:47:01.196Z,11.70
2022-09-12T00:48:01.157Z,11.72
2022-09-12T00:49:01.193Z,11.76
2022-09-12T00:50:01.133Z,11.79
2022-09-12T00:51:01.169Z,11.78
2022-09-12T00:52:01.368Z,11.76
2022-09-12T00:53:01.158Z,11.73
2022-09-12T00:54:01.143Z,11.72
2022-09-12T00:55:01.129Z,11.69
2022-09-12T00:56:01.125Z,11.69
2022-09-12T00:57:01.081Z,11.67
2022-09-12T00:58:01.073Z,11.65
2022-09-12T00:59:01.094Z,11.65
2022-09-12T01:00:01.090Z,11.67
2022-09-12T01:01:01.157Z,11.65
2022-09-12T01:02:05.225Z,11.65
2022-09-12T01:03:01.008Z,11.62
2022-09-12T01:04:01.034Z,11.62
2022-09-12T01:05:01.016Z,11.57
2022-09-12T01:06:01.004Z,11.60
2022-09-12T01:07:00.987Z,11.54
2022-09-12T01:08:00.973Z,11.51
2022-09-12T01:09:00.962Z,11.47
2022-09-12T01:10:00.937Z,11.47
2022-09-12T01:11:00.947Z,11.44
2022-09-12T01:12:01.489Z,11.43
2022-09-12T01:13:00.889Z,11.42
2022-09-12T01:14:00.907Z,11.43
2022-09-12T01:15:00.872Z,11.44
2022-09-12T01:16:00.858Z,11.47
2022-09-12T01:17:00.845Z,11.47
2022-09-12T01:18:00.859Z,11.44
2022-09-12T01:19:00.826Z,11.43
2022-09-12T01:20:00.822Z,11.43
2022-09-12T01:21:00.848Z,11.40
2022-09-12T01:22:00.789Z,11.37
2022-09-12T01:23:00.845Z,11.39
2022-09-12T01:24:00.786Z,11.40
2022-09-12T01:25:00.820Z,11.40
2022-09-12T01:26:00.783Z,11.42
2022-09-12T01:27:00.780Z,11.43
2022-09-12T01:28:00.797Z,11.44
2022-09-12T01:29:00.777Z,11.43
2022-09-12T01:30:00.723Z,11.43
2022-09-12T01:31:00.719Z,11.43
2022-09-12T01:32:00.740Z,11.39
2022-09-12T01:33:00.716Z,11.40
2022-09-12T01:34:00.718Z,11.44
2022-09-12T01:35:00.684Z,11.49
2022-09-12T01:36:00.660Z,11.52
2022-09-12T01:37:00.685Z,11.54
2022-09-12T01:38:00.682Z,11.51
2022-09-12T01:39:00.658Z,11.54
2022-09-12T01:40:00.710Z,11.52
2022-09-12T01:41:00.615Z,11.54
2022-09-12T01:42:00.631Z,11.49
2022-09-12T01:43:00.644Z,11.46
2022-09-12T01:44:00.588Z,11.44
2022-09-12T01:45:00.595Z,11.42
2022-09-12T01:46:00.682Z,11.39
2022-09-12T01:47:00.564Z,11.36
2022-09-12T01:48:00.553Z,11.33
2022-09-12T01:49:00.523Z,11.29
2022-09-12T01:50:00.530Z,11.28
2022-09-12T01:51:00.537Z,11.22
2022-09-12T01:52:00.477Z,11.21
2022-09-12T01:53:00.503Z,11.21
2022-09-12T01:54:00.474Z,11.18
2022-09-12T01:55:00.471Z,11.14
2022-09-12T01:56:00.467Z,11.11
2022-09-12T01:57:00.454Z,11.14
2022-09-12T01:58:00.439Z,11.15
2022-09-12T01:59:00.466Z,11.15
2022-09-12T02:00:00.426Z,11.17
2022-09-12T02:01:00.456Z,11.17
2022-09-12T02:02:00.452Z,11.17
2022-09-12T02:03:00.414Z,11.17
2022-09-12T02:04:00.345Z,11.18
2022-09-12T02:05:00.376Z,11.17
2022-09-12T02:06:00.337Z,11.15
2022-09-12T02:07:00.355Z,11.15
2022-09-12T02:08:00.330Z,11.10
2022-09-12T02:09:00.326Z,11.10
2022-09-12T02:10:00.342Z,11.14
2022-09-12T02:11:00.291Z,11.11
2022-09-12T02:12:00.285Z,11.11
2022-09-12T02:13:00.301Z,11.10
2022-09-12T02:14:00.488Z,11.10
2022-09-12T02:15:00.264Z,11.11
2022-09-12T02:16:00.261Z,11.07
2022-09-12T02:17:00.260Z,11.06
2022-09-12T02:18:00.226Z,11.04
2022-09-12T02:19:00.197Z,11.02
2022-09-12T02:20:00.219Z,11.02
2022-09-12T02:21:00.264Z,11.00
2022-09-12T02:22:00.190Z,11.00
2022-09-12T02:23:00.153Z,10.97
2022-09-12T02:24:00.168Z,10.96
2022-09-12T02:25:00.139Z,10.94
2022-09-12T02:26:00.160Z,10.94
2022-09-12T02:27:00.126Z,10.92
2022-09-12T02:28:00.101Z,10.91
2022-09-12T02:29:00.098Z,10.89
2022-09-12T02:30:00.093Z,10.91
2022-09-12T02:31:00.130Z,10.91
2022-09-12T02:32:00.061Z,10.84
2022-09-12T02:33:00.068Z,10.85
2022-09-12T02:35:05.418Z,10.91
2022-09-12T02:36:05.017Z,10.91
2022-09-12T02:37:05.013Z,10.91
2022-09-12T02:38:04.998Z,10.89
2022-09-12T02:39:04.974Z,10.86
2022-09-12T02:40:05.021Z,10.88
2022-09-12T02:41:04.968Z,10.86
2022-09-12T02:42:04.972Z,10.86
2022-09-12T02:43:04.925Z,10.88
2022-09-12T02:44:05.261Z,10.88
2022-09-12T02:45:04.929Z,10.91
2022-09-12T02:46:05.244Z,10.92
2022-09-12T02:47:04.917Z,10.94
2022-09-12T02:48:04.954Z,10.92
2022-09-12T02:49:04.930Z,10.92
2022-09-12T02:50:04.872Z,10.92
2022-09-12T02:51:05.593Z,10.94
2022-09-12T02:52:04.849Z,11.02
2022-09-12T02:53:04.877Z,11.11
2022-09-12T02:54:04.835Z,11.22
2022-09-12T02:55:04.827Z,11.32
2022-09-12T02:56:04.797Z,11.36
2022-09-12T02:57:04.815Z,11.39
2022-09-12T02:58:04.775Z,11.37
2022-09-12T02:59:04.814Z,11.39
2022-09-12T03:00:04.758Z,11.39
2022-09-12T03:01:04.758Z,11.40
2022-09-12T03:02:04.774Z,11.40
2022-09-12T03:03:05.054Z,11.40
2022-09-12T03:04:04.726Z,11.40
2022-09-12T03:05:04.809Z,11.39
2022-09-12T03:06:04.709Z,11.40
2022-09-12T03:07:04.674Z,11.39
2022-09-12T03:08:04.688Z,11.37
2022-09-12T03:09:04.699Z,11.36
2022-09-12T03:10:04.653Z,11.37
2022-09-12T03:11:04.644Z,11.40
2022-09-12T03:12:04.641Z,11.37
2022-09-12T03:13:04.623Z,11.37
2022-09-12T03:14:04.607Z,11.35
2022-09-12T03:15:05.188Z,11.33
2022-09-12T03:16:04.670Z,11.29
2022-09-12T03:17:04.584Z,11.29
2022-09-12T03:18:04.573Z,11.29
2022-09-12T03:19:04.547Z,11.29
2022-09-12T03:20:04.539Z,11.28
2022-09-12T03:21:04.535Z,11.27
2022-09-12T03:22:04.536Z,11.28
2022-09-12T03:23:04.517Z,11.27
2022-09-12T03:24:04.498Z,11.24
2022-09-12T03:25:04.505Z,11.25
2022-09-12T03:26:04.481Z,11.25
2022-09-12T03:27:04.477Z,11.22
2022-09-12T03:28:04.453Z,11.22
2022-09-12T03:29:04.469Z,11.21
2022-09-12T03:30:04.475Z,11.19
2022-09-12T03:31:04.433Z,11.19
2022-09-12T03:32:04.417Z,11.15
2022-09-12T03:33:04.421Z,11.17
2022-09-12T03:34:04.430Z,11.14
2022-09-12T03:35:04.397Z,11.14
2022-09-12T03:36:04.366Z,11.14
2022-09-12T03:37:04.348Z,11.11
2022-09-12T03:38:04.355Z,11.11
2022-09-12T03:39:04.356Z,11.10
2022-09-12T03:40:04.384Z,11.10
2022-09-12T03:41:04.333Z,11.11
2022-09-12T03:42:04.314Z,11.11
2022-09-12T03:43:04.314Z,11.09
2022-09-12T03:44:04.306Z,11.09
2022-09-12T03:45:04.293Z,11.10
2022-09-12T03:46:04.343Z,11.11
2022-09-12T03:47:08.033Z,11.10
2022-09-12T03:48:05.253Z,11.10
2022-09-12T03:49:04.212Z,11.09
2022-09-12T03:50:04.213Z,11.09
2022-09-12T03:51:04.243Z,11.07
2022-09-12T03:52:04.205Z,11.09
2022-09-12T03:53:04.201Z,11.09
2022-09-12T03:54:04.187Z,11.10
2022-09-12T03:55:04.187Z,11.09
2022-09-12T03:56:04.180Z,11.10
2022-09-12T03:57:04.145Z,11.11
2022-09-12T03:58:04.136Z,11.14
2022-09-12T03:59:04.118Z,11.14
2022-09-12T04:00:04.122Z,11.14
2022-09-12T04:01:04.163Z,11.15
2022-09-12T04:02:04.139Z,11.17
2022-09-12T04:03:04.099Z,11.17
2022-09-12T04:04:04.108Z,11.18
2022-09-12T04:05:04.080Z,11.19
2022-09-12T04:06:04.045Z,11.18
2022-09-12T04:07:04.062Z,11.21
2022-09-12T04:08:04.018Z,11.19
2022-09-12T04:09:04.053Z,11.21
2022-09-12T04:10:04.137Z,11.19
2022-09-12T04:11:04.041Z,11.18
2022-09-12T04:12:04.079Z,11.18
2022-09-12T04:13:03.967Z,11.19
2022-09-12T04:14:03.995Z,11.18
2022-09-12T04:15:03.955Z,11.17
2022-09-12T04:16:03.971Z,11.15
2022-09-12T04:17:04.497Z,11.14
2022-09-12T04:18:06.078Z,11.11
2022-09-12T04:19:03.919Z,11.10
2022-09-12T04:20:03.880Z,11.10
2022-09-12T04:21:03.902Z,11.07
2022-09-12T04:22:03.872Z,11.09
2022-09-12T04:23:03.869Z,11.06
2022-09-12T04:24:03.855Z,11.06
2022-09-12T04:25:03.852Z,11.04
2022-09-12T04:26:03.826Z,11.03
2022-09-12T04:27:07.716Z,11.04
2022-09-12T04:28:03.865Z,11.02
2022-09-12T04:29:03.790Z,11.04
2022-09-12T04:30:03.801Z,11.02
2022-09-12T04:31:03.864Z,11.02
2022-09-12T04:32:03.780Z,11.02
2022-09-12T04:33:07.934Z,11.00
2022-09-12T04:34:03.766Z,10.99
2022-09-12T04:35:03.813Z,10.99
2022-09-12T04:36:03.733Z,10.97
2022-09-12T04:37:03.726Z,10.97
2022-09-12T04:38:03.711Z,10.96
2022-09-12T04:39:03.681Z,10.94
2022-09-12T04:40:03.717Z,10.94
2022-09-12T04:41:03.670Z,10.92
2022-09-12T04:42:03.680Z,10.92
2022-09-12T04:43:03.651Z,10.88
2022-09-12T04:44:03.687Z,10.89
2022-09-12T04:45:03.641Z,10.88
2022-09-12T04:46:04.449Z,10.89
2022-09-12T04:47:03.600Z,10.86
2022-09-12T04:48:03.642Z,10.85
2022-09-12T04:49:03.614Z,10.82
2022-09-12T04:50:03.654Z,10.81
2022-09-12T04:51:03.670Z,10.78
2022-09-12T04:52:03.581Z,10.78
2022-09-12T04:53:03.577Z,10.76
2022-09-12T04:54:03.544Z,10.76
2022-09-12T04:55:03.518Z,10.76
2022-09-12T04:56:03.529Z,10.79
2022-09-12T04:57:03.536Z,10.78
2022-09-12T04:58:03.559Z,10.78
2022-09-12T04:59:03.474Z,10.79
2022-09-12T05:00:07.075Z,10.79
2022-09-12T05:01:03.486Z,10.79
2022-09-12T05:02:03.512Z,10.81
2022-09-12T05:03:03.584Z,10.81
2022-09-12T05:04:03.440Z,10.85
2022-09-12T05:05:03.430Z,10.85
2022-09-12T05:06:03.401Z,10.88
2022-09-12T05:07:03.432Z,10.88
2022-09-12T05:08:03.409Z,10.91
2022-09-12T05:09:04.095Z,10.91
2022-09-12T05:10:03.411Z,10.96
2022-09-12T05:11:03.367Z,10.94
2022-09-12T05:12:05.000Z,10.96
2022-09-12T05:13:03.319Z,10.99
2022-09-12T05:14:03.320Z,11.00
2022-09-12T05:15:03.372Z,11.02
2022-09-12T05:16:03.358Z,11.03
2022-09-12T05:17:03.453Z,11.10
2022-09-12T05:18:03.301Z,11.14
2022-09-12T05:19:03.451Z,11.14
2022-09-12T05:20:03.256Z,11.15
2022-09-12T05:21:03.259Z,11.18
2022-09-12T05:22:03.257Z,11.21
2022-09-12T05:23:03.245Z,11.24
2022-09-12T05:24:03.226Z,11.27
2022-09-12T05:25:03.220Z,11.27
2022-09-12T05:26:03.214Z,11.29
2022-09-12T05:27:03.200Z,11.32
2022-09-12T05:28:03.181Z,11.35
2022-09-12T05:29:03.172Z,11.36
2022-09-12T05:30:03.147Z,11.36
2022-09-12T05:31:03.232Z,11.37
2022-09-12T05:32:03.129Z,11.40
2022-09-12T05:33:03.136Z,11.42
2022-09-12T05:34:03.148Z,11.42
2022-09-12T05:35:03.119Z,11.44
2022-09-12T05:36:03.104Z,11.46
2022-09-12T05:37:03.075Z,11.51
2022-09-12T05:38:03.082Z,11.52
2022-09-12T05:39:03.078Z,11.57
2022-09-12T05:40:03.139Z,11.58
2022-09-12T05:41:03.030Z,11.62
2022-09-12T05:42:03.053Z,11.67
2022-09-12T05:43:03.012Z,11.70
2022-09-12T05:44:03.020Z,11.75
2022-09-12T05:45:02.990Z,11.78
2022-09-12T05:46:03.017Z,11.82
2022-09-12T05:47:02.977Z,11.86
2022-09-12T05:48:02.950Z,11.91
2022-09-12T05:49:02.951Z,11.91
2022-09-12T05:50:02.975Z,11.98
2022-09-12T05:51:02.932Z,11.99
2022-09-12T05:52:02.913Z,12.02
2022-09-12T05:53:02.900Z,12.04
2022-09-12T05:54:02.899Z,12.05
2022-09-12T05:55:02.905Z,12.10
2022-09-12T05:56:02.861Z,12.09
2022-09-12T05:57:02.877Z,12.05
2022-09-12T05:58:02.855Z,12.05
2022-09-12T05:59:02.827Z,12.05
2022-09-12T06:00:02.841Z,12.04
2022-09-12T06:01:02.843Z,12.02
2022-09-12T06:02:02.835Z,12.05
2022-09-12T06:03:02.774Z,12.07
2022-09-12T06:04:02.816Z,12.07
2022-09-12T06:05:02.761Z,12.10
2022-09-12T06:06:02.769Z,12.13
2022-09-12T06:07:02.758Z,12.16
2022-09-12T06:08:02.745Z,12.17
2022-09-12T06:09:02.741Z,12.19
2022-09-12T06:10:02.712Z,12.21
2022-09-12T06:11:02.699Z,12.24
2022-09-12T06:12:02.709Z,12.23
2022-09-12T06:13:02.689Z,12.21
2022-09-12T06:14:02.674Z,12.20
2022-09-12T06:15:02.682Z,12.24
2022-09-12T06:16:02.657Z,12.24
2022-09-12T06:17:02.718Z,12.29
2022-09-12T06:18:02.664Z,12.31
2022-09-12T06:19:02.616Z,12.34
2022-09-12T06:20:02.623Z,12.38
2022-09-12T06:21:02.815Z,12.37
2022-09-12T06:22:02.600Z,12.35
2022-09-12T06:23:02.601Z,12.37
2022-09-12T06:24:02.591Z,12.37
2022-09-12T06:25:02.548Z,12.34
2022-09-12T06:26:02.554Z,12.34
2022-09-12T06:27:02.521Z,12.32
2022-09-12T06:28:02.512Z,12.35
2022-09-12T06:29:02.514Z,12.35
2022-09-12T06:30:02.499Z,12.38
2022-09-12T06:31:02.696Z,12.37
2022-09-12T06:32:02.481Z,12.38
2022-09-12T06:33:02.474Z,12.39
2022-09-12T06:34:02.469Z,12.41
2022-09-12T06:35:02.439Z,12.45
2022-09-12T06:36:02.456Z,12.49
2022-09-12T06:37:02.427Z,12.49
2022-09-12T06:38:02.403Z,12.52
2022-09-12T06:39:02.396Z,12.57
2022-09-12T06:40:02.477Z,12.62
2022-09-12T06:41:02.396Z,12.71
2022-09-12T06:42:02.388Z,12.75
2022-09-12T06:43:02.370Z,12.79
2022-09-12T06:44:02.334Z,12.83
2022-09-12T06:45:02.346Z,12.83
2022-09-12T06:46:02.390Z,12.77
2022-09-12T06:47:02.312Z,12.78
2022-09-12T06:48:02.315Z,12.79
2022-09-12T06:49:02.295Z,12.82
2022-09-12T06:50:02.287Z,12.85
2022-09-12T06:51:02.294Z,12.89
2022-09-12T06:52:02.303Z,12.95
2022-09-12T06:53:02.255Z,12.95
2022-09-12T06:54:02.235Z,12.92
2022-09-12T06:55:02.231Z,12.90
2022-09-12T06:56:02.217Z,12.93
2022-09-12T06:57:02.203Z,12.97
2022-09-12T06:58:02.200Z,13.00
2022-09-12T06:59:02.211Z,13.05
2022-09-12T07:00:02.167Z,13.15
2022-09-12T07:01:02.235Z,13.22
2022-09-12T07:02:02.255Z,13.28
2022-09-12T07:03:02.141Z,13.32
2022-09-12T07:04:02.124Z,13.41
2022-09-12T07:05:02.123Z,13.44
2022-09-12T07:06:02.099Z,13.46
2022-09-12T07:07:02.121Z,13.52
2022-09-12T07:08:02.095Z,13.54
2022-09-12T07:09:02.082Z,13.62
2022-09-12T07:10:02.074Z,13.62
2022-09-12T07:11:02.069Z,13.60
2022-09-12T07:12:02.100Z,13.59
2022-09-12T07:13:02.036Z,13.45
2022-09-12T07:14:02.028Z,13.45
2022-09-12T07:15:02.014Z,13.46
2022-09-12T07:16:02.009Z,13.44
2022-09-12T07:17:02.046Z,13.39
2022-09-12T07:18:01.991Z,13.44
2022-09-12T07:19:01.983Z,13.51
2022-09-12T07:20:01.959Z,13.59
2022-09-12T07:21:01.956Z,13.60
2022-09-12T07:22:01.937Z,13.54
2022-09-12T07:23:02.295Z,13.49
2022-09-12T07:24:01.913Z,13.55
2022-09-12T07:25:01.914Z,13.63
2022-09-12T07:26:01.906Z,13.46
2022-09-12T07:27:01.882Z,13.44
2022-09-12T07:28:01.897Z,13.49
2022-09-12T07:29:19.048Z,13.55
2022-09-12T07:30:02.874Z,13.67
2022-09-12T07:31:01.932Z,13.77
2022-09-12T07:32:01.832Z,13.79
2022-09-12T07:33:01.815Z,13.84
2022-09-12T07:34:01.814Z,13.91
2022-09-12T07:35:01.820Z,13.95
2022-09-12T07:36:01.790Z,13.97
2022-09-12T07:37:01.793Z,14.02
2022-09-12T07:38:01.753Z,14.06
2022-09-12T07:39:01.760Z,14.18
2022-09-12T07:40:01.802Z,14.32
2022-09-12T07:41:01.746Z,14.37
2022-09-12T07:42:01.708Z,14.45
2022-09-12T07:43:01.730Z,14.55
2022-09-12T07:44:01.881Z,14.52
2022-09-12T07:45:01.685Z,14.52
2022-09-12T07:46:01.728Z,14.60
2022-09-12T07:47:01.673Z,14.75
2022-09-12T07:48:01.670Z,14.86
2022-09-12T07:49:01.661Z,14.94
2022-09-12T07:50:01.643Z,15.09
2022-09-12T07:51:01.637Z,15.11
2022-09-12T07:52:01.640Z,15.20
2022-09-12T07:53:01.627Z,15.27
2022-09-12T07:54:01.616Z,15.38
2022-09-12T07:55:01.677Z,15.47
2022-09-12T07:56:01.569Z,15.54
2022-09-12T07:57:01.575Z,15.64
2022-09-12T07:58:01.556Z,15.72
2022-09-12T07:59:01.542Z,15.74
2022-09-12T08:00:01.531Z,15.80
2022-09-12T08:01:01.589Z,15.89
2022-09-12T08:02:01.526Z,15.97
2022-09-12T08:03:01.491Z,16.09
2022-09-12T08:04:01.482Z,16.27
2022-09-12T08:05:01.468Z,16.38
2022-09-12T08:06:01.469Z,16.48
2022-09-12T08:07:01.506Z,16.56
2022-09-12T08:08:01.437Z,16.61
2022-09-12T08:09:01.526Z,16.67
2022-09-12T08:10:01.621Z,16.75
2022-09-12T08:11:01.631Z,16.88
2022-09-12T08:12:01.494Z,17.00
2022-09-12T08:13:01.511Z,17.12
2022-09-12T08:14:01.389Z,17.15
2022-09-12T08:15:01.385Z,17.25
2022-09-12T08:16:01.404Z,17.34
2022-09-12T08:17:01.377Z,17.44
2022-09-12T08:18:01.390Z,17.44
2022-09-12T08:19:01.365Z,17.54
2022-09-12T08:20:01.321Z,17.63
2022-09-12T08:21:01.342Z,17.68
2022-09-12T08:22:01.338Z,17.56
2022-09-12T08:23:01.399Z,17.44
2022-09-12T08:24:01.441Z,17.43
2022-09-12T08:25:01.796Z,17.44
2022-09-12T08:26:05.293Z,17.55
2022-09-12T08:27:01.263Z,17.64
2022-09-12T08:28:01.230Z,17.68
2022-09-12T08:29:01.283Z,17.72
2022-09-12T08:30:01.232Z,17.77
2022-09-12T08:31:01.282Z,17.75
2022-09-12T08:32:01.322Z,17.77
2022-09-12T08:33:01.219Z,17.87
2022-09-12T08:34:01.377Z,17.96
2022-09-12T08:35:08.161Z,18.02
2022-09-12T08:36:01.143Z,18.10
2022-09-12T08:37:01.108Z,18.17
2022-09-12T08:38:02.823Z,18.25
2022-09-12T08:39:01.096Z,18.29
2022-09-12T08:40:01.106Z,18.36
2022-09-12T08:41:01.078Z,18.42
2022-09-12T08:42:01.134Z,18.54
2022-09-12T08:43:01.051Z,18.63
2022-09-12T08:44:01.056Z,18.80
2022-09-12T08:45:01.022Z,18.90
2022-09-12T08:46:01.045Z,18.98
2022-09-12T08:47:01.005Z,19.07
2022-09-12T08:48:01.011Z,19.18
2022-09-12T08:49:01.012Z,19.28
2022-09-12T08:50:00.996Z,19.33
2022-09-12T08:51:00.969Z,19.36
2022-09-12T08:52:00.960Z,19.39
2022-09-12T08:53:00.946Z,19.46
2022-09-12T08:54:00.937Z,19.55
2022-09-12T08:55:00.924Z,19.61
2022-09-12T08:56:01.028Z,19.69
2022-09-12T08:57:01.777Z,19.77
2022-09-12T08:58:00.903Z,19.81
2022-09-12T08:59:00.882Z,19.84
2022-09-12T09:00:00.889Z,19.92
2022-09-12T09:01:00.880Z,19.96
2022-09-12T09:02:00.961Z,20.03
2022-09-12T09:03:00.843Z,20.11
2022-09-12T09:04:00.834Z,20.17
2022-09-12T09:05:00.820Z,20.16
2022-09-12T09:06:00.820Z,20.18
2022-09-12T09:07:00.819Z,20.16
2022-09-12T09:08:00.804Z,20.14
2022-09-12T09:09:00.779Z,20.14
2022-09-12T09:10:00.766Z,20.13
2022-09-12T09:11:00.762Z,20.17
2022-09-12T09:12:00.744Z,20.23
2022-09-12T09:13:00.744Z,20.24
2022-09-12T09:14:04.486Z,20.29
2022-09-12T09:15:00.716Z,20.33
2022-09-12T09:16:00.747Z,20.39
2022-09-12T09:17:00.711Z,20.43
2022-09-12T09:18:00.693Z,20.55
2022-09-12T09:19:00.685Z,20.61
2022-09-12T09:20:00.689Z,20.72
2022-09-12T09:21:00.643Z,20.76
2022-09-12T09:22:00.639Z,20.87
2022-09-12T09:23:00.622Z,20.99
2022-09-12T09:24:00.633Z,21.09
2022-09-12T09:25:00.666Z,21.17
2022-09-12T09:26:00.612Z,21.29
2022-09-12T09:27:00.773Z,21.37
2022-09-12T09:28:00.581Z,21.44
2022-09-12T09:29:00.556Z,21.50
2022-09-12T09:30:00.562Z,21.62
2022-09-12T09:31:00.604Z,21.65
2022-09-12T09:32:00.535Z,21.65
2022-09-12T09:33:00.520Z,21.71
2022-09-12T09:34:00.507Z,21.69
2022-09-12T09:35:00.513Z,21.74
2022-09-12T09:36:00.498Z,21.83
2022-09-12T09:37:00.485Z,21.88
2022-09-12T09:38:00.470Z,22.00
2022-09-12T09:39:00.453Z,22.10
2022-09-12T09:40:00.471Z,22.10
2022-09-12T09:41:00.439Z,22.10
2022-09-12T09:42:00.428Z,22.20
2022-09-12T09:43:00.412Z,22.22
2022-09-12T09:44:00.430Z,22.25
2022-09-12T09:45:00.401Z,22.28
2022-09-12T09:46:00.502Z,22.31
2022-09-12T09:47:00.371Z,22.33
2022-09-12T09:48:00.353Z,22.25
2022-09-12T09:49:02.323Z,22.33
2022-09-12T09:50:00.374Z,22.27
2022-09-12T09:51:00.330Z,22.21
2022-09-12T09:52:00.741Z,22.24
2022-09-12T09:53:00.338Z,22.24
2022-09-12T09:54:00.294Z,22.39
2022-09-12T09:55:00.284Z,22.46
2022-09-12T09:56:00.305Z,22.58
2022-09-12T09:57:00.252Z,22.35
2022-09-12T09:58:00.283Z,22.27
2022-09-12T09:59:00.240Z,22.31
2022-09-12T10:00:00.235Z,22.33
2022-09-12T10:01:00.251Z,22.37
2022-09-12T10:02:00.208Z,22.28
2022-09-12T10:03:00.321Z,22.09
2022-09-12T10:04:00.186Z,22.09
2022-09-12T10:05:00.186Z,22.17
2022-09-12T10:06:00.166Z,22.14
2022-09-12T10:07:00.158Z,22.17
2022-09-12T10:08:00.130Z,22.15
2022-09-12T10:09:00.137Z,22.22
2022-09-12T10:10:00.150Z,22.25
2022-09-12T10:11:00.118Z,22.28
2022-09-12T10:12:00.104Z,22.22
2022-09-12T10:13:00.095Z,22.28
2022-09-12T10:14:00.076Z,22.27
2022-09-12T10:15:00.062Z,22.31
2022-09-12T10:16:00.124Z,22.35
2022-09-12T10:17:00.057Z,22.37
2022-09-12T10:18:00.036Z,22.45
2022-09-12T10:19:00.027Z,22.47
2022-09-12T10:20:20.023Z,22.46
2022-09-12T10:21:01.063Z,22.54
2022-09-12T10:22:00.006Z,22.55
2022-09-12T10:22:59.981Z,22.57
2022-09-12T10:23:59.975Z,22.61
2022-09-12T10:24:59.963Z,22.58
2022-09-12T10:25:59.965Z,22.64
2022-09-12T10:26:59.946Z,22.70
2022-09-12T10:27:59.936Z,22.72
2022-09-12T10:29:00.103Z,22.73
2022-09-12T10:29:59.914Z,22.60
2022-09-12T10:31:00.038Z,22.62
2022-09-12T10:31:59.890Z,22.72
2022-09-12T10:32:59.877Z,22.82
2022-09-12T10:33:59.872Z,22.80
2022-09-12T10:34:59.873Z,22.85
2022-09-12T10:35:59.856Z,22.83
2022-09-12T10:36:59.838Z,22.73
2022-09-12T10:37:59.845Z,22.77
2022-09-12T10:38:59.839Z,22.80
2022-09-12T10:39:59.858Z,22.72
2022-09-12T10:40:59.820Z,22.75
2022-09-12T10:41:59.786Z,22.72
2022-09-12T10:42:59.784Z,22.72
2022-09-12T10:43:59.770Z,22.80
2022-09-12T10:44:59.763Z,22.79
2022-09-12T10:45:59.802Z,22.77
2022-09-12T10:46:59.722Z,22.77
2022-09-12T10:48:03.063Z,22.76
2022-09-12T10:48:59.724Z,22.85
2022-09-12T10:49:59.705Z,22.91
2022-09-12T10:50:59.693Z,22.88
2022-09-12T10:51:59.722Z,22.83
2022-09-12T10:52:59.654Z,22.86
2022-09-12T10:53:59.674Z,22.98
2022-09-12T10:54:59.647Z,23.02
2022-09-12T10:55:59.683Z,23.12
2022-09-12T10:56:59.663Z,23.20
2022-09-12T10:57:59.614Z,23.16
2022-09-12T10:58:59.615Z,22.94
2022-09-12T10:59:59.652Z,22.94
2022-09-12T11:00:59.578Z,22.97
2022-09-12T11:01:59.574Z,23.02
2022-09-12T11:02:59.589Z,23.05
2022-09-12T11:03:59.559Z,23.16
2022-09-12T11:04:59.558Z,23.28
2022-09-12T11:05:59.539Z,23.43
2022-09-12T11:06:59.552Z,23.50
2022-09-12T11:07:59.526Z,23.57
2022-09-12T11:08:59.518Z,23.65
2022-09-12T11:09:59.507Z,23.78
2022-09-12T11:10:59.489Z,23.94
2022-09-12T11:11:59.490Z,23.87
2022-09-12T11:12:59.471Z,23.87
2022-09-12T11:13:59.462Z,23.83
2022-09-12T11:14:59.438Z,23.95
2022-09-12T11:15:59.479Z,23.98
2022-09-12T11:16:59.407Z,23.90
2022-09-12T11:17:59.397Z,23.97
2022-09-12T11:18:59.397Z,23.97
2022-09-12T11:19:59.399Z,24.06
2022-09-12T11:20:59.369Z,24.28
2022-09-12T11:21:59.372Z,24.34
2022-09-12T11:22:59.413Z,24.46
2022-09-12T11:23:59.346Z,24.52
2022-09-12T11:24:59.335Z,24.60
2022-09-12T11:25:59.317Z,24.65
2022-09-12T11:26:59.297Z,24.67
2022-09-12T11:27:59.302Z,24.58
2022-09-12T11:28:59.294Z,24.61
2022-09-12T11:29:59.293Z,24.61
2022-09-12T11:30:59.561Z,24.71
2022-09-12T11:31:59.256Z,24.65
2022-09-12T11:32:59.244Z,24.71
2022-09-12T11:33:59.225Z,24.73
2022-09-12T11:34:59.241Z,24.58
2022-09-12T11:35:59.212Z,24.35
2022-09-12T11:36:59.213Z,24.37
2022-09-12T11:37:59.203Z,24.43
2022-09-12T11:38:59.183Z,24.45
2022-09-12T11:39:59.214Z,24.43
2022-09-12T11:40:59.157Z,24.43
2022-09-12T11:41:59.149Z,24.47
2022-09-12T11:42:59.139Z,24.42
2022-09-12T11:43:59.152Z,24.34
2022-09-12T11:44:59.131Z,24.35
2022-09-12T11:45:59.145Z,24.46
2022-09-12T11:46:59.099Z,24.57
2022-09-12T11:47:59.089Z,24.76
2022-09-12T11:48:59.071Z,24.77
2022-09-12T11:49:59.078Z,24.78
2022-09-12T11:50:59.073Z,24.77
2022-09-12T11:51:59.074Z,24.65
2022-09-12T11:52:59.026Z,24.58
2022-09-12T11:53:59.035Z,24.49
2022-09-12T11:54:59.029Z,24.34
2022-09-12T11:55:59.001Z,24.27
2022-09-12T11:56:59.016Z,23.97
2022-09-12T11:57:58.985Z,23.85
2022-09-12T11:58:58.979Z,23.94
2022-09-12T11:59:58.978Z,24.03
2022-09-12T12:00:58.960Z,24.30
2022-09-12T12:01:59.080Z,24.49
2022-09-12T12:02:58.921Z,24.71
2022-09-12T12:03:59.000Z,24.83
2022-09-12T12:04:58.908Z,24.71
2022-09-12T12:05:58.930Z,24.62
2022-09-12T12:06:58.887Z,24.58
2022-09-12T12:07:58.906Z,24.52
2022-09-12T12:08:58.884Z,24.55
2022-09-12T12:09:58.854Z,24.39
2022-09-12T12:10:58.840Z,24.35
2022-09-12T12:11:58.846Z,24.34
2022-09-12T12:12:58.838Z,24.49
2022-09-12T12:13:58.824Z,24.47
2022-09-12T12:14:58.805Z,24.69
2022-09-12T12:15:58.847Z,25.02
2022-09-12T12:16:58.791Z,25.28
2022-09-12T12:17:58.778Z,25.51
2022-09-12T12:18:58.770Z,25.62
2022-09-12T12:20:02.364Z,25.58
2022-09-12T12:20:59.740Z,25.50
2022-09-12T12:21:58.739Z,25.50
2022-09-12T12:22:58.729Z,25.64
2022-09-12T12:23:58.726Z,25.79
2022-09-12T12:24:58.716Z,25.83
2022-09-12T12:25:58.692Z,25.80
2022-09-12T12:26:58.685Z,25.87
2022-09-12T12:27:58.676Z,25.85
2022-09-12T12:28:58.665Z,26.02
2022-09-12T12:29:58.672Z,26.29
2022-09-12T12:30:58.681Z,26.37
2022-09-12T12:31:58.964Z,26.35
2022-09-12T12:32:58.626Z,26.51
2022-09-12T12:33:58.616Z,26.77
2022-09-12T12:34:58.617Z,27.17
2022-09-12T12:35:58.583Z,27.51
2022-09-12T12:36:58.591Z,27.49
2022-09-12T12:37:58.581Z,27.44
2022-09-12T12:38:58.562Z,27.25
2022-09-12T12:39:58.592Z,27.32
2022-09-12T12:40:58.538Z,27.34
2022-09-12T12:41:58.545Z,27.34
2022-09-12T12:42:58.532Z,27.37
2022-09-12T12:43:58.518Z,27.22
2022-09-12T12:44:58.504Z,27.29
2022-09-12T12:45:58.511Z,27.43
2022-09-12T12:46:58.486Z,27.72
2022-09-12T12:47:58.478Z,27.93
2022-09-12T12:48:58.463Z,28.18
2022-09-12T12:49:58.443Z,28.21
2022-09-12T12:50:58.450Z,28.29
2022-09-12T12:51:58.436Z,28.49
2022-09-12T12:52:58.437Z,28.83